createdAt,value
2019-04-25T00:01:16.930Z,95662.72
2019-04-25T00:03:48.723Z,95670.31
2019-04-25T00:06:21.546Z,95666.91
2019-04-25T00:08:54.158Z,95667.05
2019-04-25T00:11:26.672Z,95663.25
2019-04-25T00:13:58.601Z,95665.74
2019-04-25T00:16:32.471Z,95662.66
2019-04-25T00:19:04.263Z,95665.14
2019-04-25T00:21:46.688Z,95657.06
2019-04-25T00:24:27.944Z,95658.53
2019-04-25T00:26:59.773Z,95655.89
2019-04-25T00:29:31.902Z,95657.73
2019-04-25T00:32:04.147Z,95657.28
2019-04-25T00:34:35.748Z,95653.47
2019-04-25T00:37:07.864Z,95655.44
2019-04-25T00:39:39.599Z,95652.36
2019-04-25T00:42:12.200Z,95652.88
2019-04-25T00:44:45.044Z,95649.19
2019-04-25T00:47:17.614Z,95652.06
2019-04-25T00:49:49.049Z,95647.41
2019-04-25T00:52:22.753Z,95646.23
2019-04-25T00:54:54.590Z,95646.32
2019-04-25T00:57:27.580Z,95645.34
2019-04-25T01:00:18.492Z,95650.56
2019-04-25T01:02:53.197Z,95657.48
2019-04-25T01:05:24.635Z,95653.59
2019-04-25T01:07:56.051Z,95656.27
2019-04-25T01:10:28.092Z,95660.02
2019-04-25T01:13:01.367Z,95664.93
2019-04-25T01:15:33.542Z,95673.09
2019-04-25T01:18:06.624Z,95666.34
2019-04-25T01:20:38.418Z,95665.11
2019-04-25T01:23:09.900Z,95660.33
2019-04-25T01:25:43.090Z,95661.16
2019-04-25T01:28:15.543Z,95667.78
2019-04-25T01:30:47.883Z,95661.23
2019-04-25T01:33:20.103Z,95662.86
2019-04-25T01:35:57.468Z,95669.02
2019-04-25T01:38:56.638Z,95673.66
2019-04-25T01:41:55.022Z,95672.54
2019-04-25T01:44:34.080Z,95671.77
2019-04-25T01:47:05.997Z,95674.70
2019-04-25T01:49:37.662Z,95671.72
2019-04-25T01:52:09.381Z,95666.64
2019-04-25T01:54:41.107Z,95665.64
2019-04-25T01:57:14.250Z,95666.98
2019-04-25T01:59:46.207Z,95662.97
2019-04-25T02:02:23.362Z,95660.97
2019-04-25T02:04:58.765Z,95658.40
2019-04-25T02:07:28.893Z,95659.81
2019-04-25T02:10:01.688Z,95661.74
2019-04-25T02:12:43.570Z,95658.71
2019-04-25T02:15:16.966Z,95660.50
2019-04-25T02:17:47.659Z,95653.84
2019-04-25T02:20:19.184Z,95653.19
2019-04-25T02:22:52.145Z,95644.72
2019-04-25T02:25:24.620Z,95652.96
2019-04-25T02:27:59.958Z,95647.70
2019-04-25T02:30:30.129Z,95646.48
2019-04-25T02:33:04.413Z,95642.38
2019-04-25T02:35:42.779Z,95645.23
2019-04-25T02:38:16.640Z,95648.69
2019-04-25T02:40:45.730Z,95644.93
2019-04-25T02:43:17.372Z,95647.06
2019-04-25T02:46:20.228Z,95651.48
2019-04-25T02:49:29.730Z,95662.67
2019-04-25T02:52:17.979Z,95651.45
2019-04-25T02:54:49.443Z,95656.89
2019-04-25T02:57:20.918Z,95662.59
2019-04-25T02:59:54.578Z,95660.96
2019-04-25T03:02:26.054Z,95667.16
2019-04-25T03:04:59.454Z,95660.15
2019-04-25T03:07:31.401Z,95659.75
2019-04-25T03:10:06.166Z,95656.59
2019-04-25T03:12:37.676Z,95657.95
2019-04-25T03:15:10.336Z,95654.25
2019-04-25T03:17:44.133Z,95654.53
2019-04-25T03:20:36.593Z,95654.08
2019-04-25T03:23:34.946Z,95657.75
2019-04-25T03:26:07.510Z,95651.72
2019-04-25T03:28:39.447Z,95647.98
2019-04-25T03:31:16.073Z,95648.75
2019-04-25T03:33:45.945Z,95654.30
2019-04-25T03:36:17.121Z,95661.66
2019-04-25T03:38:49.165Z,95661.34
2019-04-25T03:41:20.821Z,95664.62
2019-04-25T03:43:54.021Z,95662.77
2019-04-25T03:46:26.045Z,95668.81
2019-04-25T03:48:57.769Z,95666.94
2019-04-25T03:51:29.313Z,95666.75
2019-04-25T03:54:01.679Z,95673.45
2019-04-25T03:56:33.447Z,95668.98
2019-04-25T03:59:06.336Z,95676.26
2019-04-25T04:01:38.971Z,95671.37
2019-04-25T04:04:11.142Z,95673.12
2019-04-25T04:06:44.113Z,95678.65
2019-04-25T04:09:15.238Z,95687.09
2019-04-25T04:11:47.048Z,95686.82
2019-04-25T04:14:18.668Z,95689.12
2019-04-25T04:17:08.806Z,95691.81
2019-04-25T04:20:03.934Z,95694.06
2019-04-25T04:22:41.035Z,95702.30
2019-04-25T04:25:14.517Z,95705.49
2019-04-25T04:27:46.786Z,95707.93
2019-04-25T04:30:18.717Z,95708.88
2019-04-25T04:32:50.430Z,95714.10
2019-04-25T04:35:23.529Z,95716.19
2019-04-25T04:37:54.239Z,95715.64
2019-04-25T04:40:26.082Z,95712.75
2019-04-25T04:42:57.885Z,95712.48
2019-04-25T04:45:29.498Z,95708.52
2019-04-25T04:48:01.085Z,95713.20
2019-04-25T04:50:33.633Z,95718.42
2019-04-25T04:53:05.800Z,95716.68
2019-04-25T04:55:37.966Z,95720.91
2019-04-25T04:58:11.050Z,95716.28
2019-04-25T05:00:41.584Z,95718.03
2019-04-25T05:03:39.315Z,95726.06
2019-04-25T05:06:25.241Z,95723.03
2019-04-25T05:09:01.229Z,95720.96
2019-04-25T05:11:34.745Z,95722.78
2019-04-25T05:14:06.315Z,95720.98
2019-04-25T05:16:38.297Z,95720.98
2019-04-25T05:19:10.249Z,95726.73
2019-04-25T05:21:43.564Z,95722.14
2019-04-25T05:24:16.385Z,95715.89
2019-04-25T05:26:48.601Z,95722.54
2019-04-25T05:29:22.482Z,95717.63
2019-04-25T05:31:54.261Z,95717.69
2019-04-25T05:34:26.095Z,95714.92
2019-04-25T05:36:57.935Z,95717.52
2019-04-25T05:39:29.804Z,95721.03
2019-04-25T05:42:20.390Z,95717.22
2019-04-25T05:44:52.319Z,95720.98
2019-04-25T05:47:26.090Z,95717.33
2019-04-25T05:49:57.228Z,95716.70
2019-04-25T05:52:28.820Z,95715.84
2019-04-25T05:55:00.365Z,95716.90
2019-04-25T05:57:45.221Z,95716.93
2019-04-25T06:00:05.840Z,95716.35
2019-04-25T06:02:37.493Z,95721.39
2019-04-25T06:05:10.260Z,95727.49
2019-04-25T06:07:43.212Z,95725.37
2019-04-25T06:10:33.927Z,95731.50
2019-04-25T06:13:26.439Z,95730.16
2019-04-25T06:16:20.316Z,95721.31
2019-04-25T06:19:13.621Z,95728.41
2019-04-25T06:21:36.451Z,95733.83
2019-04-25T06:24:27.455Z,95734.03
2019-04-25T06:27:19.725Z,95736.63
2019-04-25T06:30:01.017Z,95742.42
2019-04-25T06:32:35.467Z,95734.88
2019-04-25T06:35:08.327Z,95730.31
2019-04-25T06:37:39.919Z,95731.72
2019-04-25T06:40:13.699Z,95730.31
2019-04-25T06:42:46.910Z,95737.80
2019-04-25T06:45:37.216Z,95731.00
2019-04-25T06:48:46.764Z,95727.23
2019-04-25T06:51:18.454Z,95727.88
2019-04-25T06:53:50.327Z,95721.85
2019-04-25T06:56:25.244Z,95714.50
2019-04-25T06:58:57.946Z,95708.64
2019-04-25T07:01:30.466Z,95709.50
2019-04-25T07:04:03.992Z,95715.19
2019-04-25T07:06:36.048Z,95712.69
2019-04-25T07:09:10.223Z,95715.51
2019-04-25T07:11:44.065Z,95710.30
2019-04-25T07:14:16.109Z,95718.06
2019-04-25T07:16:47.842Z,95712.17
2019-04-25T07:19:19.459Z,95719.81
2019-04-25T07:21:51.235Z,95711.17
2019-04-25T07:24:24.815Z,95719.52
2019-04-25T07:27:26.630Z,95717.03
2019-04-25T07:30:26.897Z,95727.54
2019-04-25T07:32:54.538Z,95721.97
2019-04-25T07:35:26.775Z,95713.99
2019-04-25T07:37:58.522Z,95721.23
2019-04-25T07:40:31.763Z,95711.89
2019-04-25T07:43:04.886Z,95707.91
2019-04-25T07:45:36.990Z,95715.41
2019-04-25T07:48:09.131Z,95715.68
2019-04-25T07:50:41.070Z,95714.34
2019-04-25T07:53:14.264Z,95716.22
2019-04-25T07:55:46.297Z,95718.31
2019-04-25T07:58:18.424Z,95719.11
2019-04-25T08:00:50.366Z,95710.45
2019-04-25T08:03:23.667Z,95708.56
2019-04-25T08:05:55.885Z,95696.10
2019-04-25T08:08:28.181Z,95694.27
2019-04-25T08:11:05.745Z,95690.88
2019-04-25T08:13:59.426Z,95688.76
2019-04-25T08:16:34.321Z,95684.06
2019-04-25T08:19:06.972Z,95680.83
2019-04-25T08:21:39.039Z,95676.30
2019-04-25T08:24:11.100Z,95676.08
2019-04-25T08:26:43.675Z,95674.70
2019-04-25T08:29:15.729Z,95668.06
2019-04-25T08:31:47.514Z,95667.72
2019-04-25T08:34:19.511Z,95656.70
2019-04-25T08:36:51.599Z,95652.25
2019-04-25T08:39:24.061Z,95648.00
2019-04-25T08:41:57.055Z,95644.87
2019-04-25T08:44:28.752Z,95645.27
2019-04-25T08:47:00.645Z,95642.98
2019-04-25T08:49:38.385Z,95641.53
2019-04-25T08:52:10.204Z,95638.69
2019-04-25T08:54:56.194Z,95629.07
2019-04-25T08:57:45.105Z,95636.63
2019-04-25T09:00:35.477Z,95640.20
2019-04-25T09:03:06.624Z,95631.58
2019-04-25T09:05:46.098Z,95638.27
2019-04-25T09:08:17.325Z,95642.59
2019-04-25T09:10:49.107Z,95639.06
2019-04-25T09:13:20.856Z,95628.03
2019-04-25T09:15:54.012Z,95616.52
2019-04-25T09:18:26.064Z,95607.02
2019-04-25T09:20:57.825Z,95601.12
2019-04-25T09:23:29.616Z,95601.37
2019-04-25T09:26:02.309Z,95600.70
2019-04-25T09:28:37.606Z,95597.16
2019-04-25T09:31:07.666Z,95600.98
2019-04-25T09:33:39.571Z,95606.28
2019-04-25T09:36:11.465Z,95598.25
2019-04-25T09:38:46.990Z,95599.36
2019-04-25T09:41:16.439Z,95587.36
2019-04-25T09:43:48.706Z,95589.64
2019-04-25T09:46:26.301Z,95592.83
2019-04-25T09:49:09.751Z,95585.26
2019-04-25T09:51:49.361Z,95583.29
2019-04-25T09:54:39.890Z,95569.43
2019-04-25T09:57:30.559Z,95573.68
2019-04-25T10:00:03.675Z,95568.69
2019-04-25T10:02:37.020Z,95563.83
2019-04-25T10:05:09.215Z,95556.68
2019-04-25T10:07:40.903Z,95555.16
2019-04-25T10:10:13.514Z,95550.20
2019-04-25T10:12:45.336Z,95549.97
2019-04-25T10:15:39.057Z,95547.89
2019-04-25T10:18:10.960Z,95545.68
2019-04-25T10:20:43.485Z,95542.20
2019-04-25T10:23:16.816Z,95541.25
2019-04-25T10:25:48.649Z,95540.83
2019-04-25T10:28:20.336Z,95538.11
2019-04-25T10:30:53.169Z,95538.67
2019-04-25T10:33:26.746Z,95526.55
2019-04-25T10:36:00.780Z,95526.55
2019-04-25T10:38:33.464Z,95529.11
2019-04-25T10:41:06.751Z,95520.39
2019-04-25T10:43:39.650Z,95520.39
2019-04-25T10:46:14.163Z,95516.14
2019-04-25T10:48:46.116Z,95516.14
2019-04-25T10:51:17.738Z,95508.19
2019-04-25T10:53:49.502Z,95507.22
2019-04-25T10:56:20.826Z,95500.69
2019-04-25T10:58:54.548Z,95506.50
2019-04-25T11:01:26.318Z,95498.09
2019-04-25T11:04:13.841Z,95501.16
2019-04-25T11:06:45.640Z,95496.18
2019-04-25T11:09:25.783Z,95492.61
2019-04-25T11:12:00.732Z,95498.44
2019-04-25T11:14:34.225Z,95485.00
2019-04-25T11:17:06.263Z,95489.50
2019-04-25T11:19:38.283Z,95490.11
2019-04-25T11:22:09.753Z,95484.73
2019-04-25T11:24:41.513Z,95481.98
2019-04-25T11:27:14.077Z,95480.01
2019-04-25T11:29:46.262Z,95476.47
2019-04-25T11:32:20.506Z,95473.77
2019-04-25T11:34:53.202Z,95472.90
2019-04-25T11:37:27.219Z,95473.81
2019-04-25T11:40:05.302Z,95469.00
2019-04-25T11:42:36.989Z,95467.97
2019-04-25T11:45:10.643Z,95461.34
2019-04-25T11:47:43.370Z,95462.06
2019-04-25T11:50:15.710Z,95456.36
2019-04-25T11:52:47.635Z,95451.31
2019-04-25T11:55:20.121Z,95443.58
2019-04-25T11:57:53.171Z,95437.69
2019-04-25T12:00:27.947Z,95437.03
2019-04-25T12:02:59.643Z,95428.66
2019-04-25T12:05:31.256Z,95428.08
2019-04-25T12:08:04.085Z,95420.50
2019-04-25T12:10:36.423Z,95423.38
2019-04-25T12:13:08.058Z,95416.83
2019-04-25T12:15:39.982Z,95410.52
2019-04-25T12:18:13.782Z,95412.72
2019-04-25T12:20:46.554Z,95410.30
2019-04-25T12:23:18.938Z,95403.64
2019-04-25T12:25:50.368Z,95402.31
2019-04-25T12:28:23.526Z,95409.37
2019-04-25T12:30:56.454Z,95399.92
2019-04-25T12:33:28.586Z,95399.11
2019-04-25T12:36:00.527Z,95396.44
2019-04-25T12:38:35.105Z,95402.53
2019-04-25T12:41:05.733Z,95396.05
2019-04-25T12:43:39.277Z,95398.89
2019-04-25T12:46:29.312Z,95396.09
2019-04-25T12:49:01.002Z,95400.27
2019-04-25T12:51:33.949Z,95392.54
2019-04-25T12:54:06.625Z,95383.08
2019-04-25T12:56:37.491Z,95382.15
2019-04-25T12:59:09.203Z,95377.20
2019-04-25T13:01:41.081Z,95376.14
2019-04-25T13:04:15.840Z,95379.15
2019-04-25T13:06:48.754Z,95376.24
2019-04-25T13:09:20.910Z,95375.16
2019-04-25T13:11:53.461Z,95372.51
2019-04-25T13:14:25.234Z,95368.41
2019-04-25T13:16:56.772Z,95366.73
2019-04-25T13:19:28.456Z,95367.55
2019-04-25T13:22:00.663Z,95368.45
2019-04-25T13:24:32.717Z,95365.73
2019-04-25T13:27:26.714Z,95354.61
2019-04-25T13:30:07.913Z,95352.43
2019-04-25T13:32:58.683Z,95357.77
2019-04-25T13:35:38.985Z,95360.20
2019-04-25T13:38:11.097Z,95353.38
2019-04-25T13:40:42.786Z,95354.84
2019-04-25T13:43:14.663Z,95345.95
2019-04-25T13:45:46.562Z,95349.02
2019-04-25T13:48:18.554Z,95345.95
2019-04-25T13:50:50.318Z,95344.95
2019-04-25T13:53:23.519Z,95331.20
2019-04-25T13:55:55.579Z,95334.81
2019-04-25T13:58:30.519Z,95329.94
2019-04-25T14:01:12.345Z,95332.61
2019-04-25T14:03:35.795Z,95332.61
2019-04-25T14:06:07.681Z,95331.25
2019-04-25T14:08:39.474Z,95327.39
2019-04-25T14:11:11.562Z,95333.53
2019-04-25T14:13:43.121Z,95331.95
2019-04-25T14:16:34.920Z,95335.40
2019-04-25T14:19:29.426Z,95325.34
2019-04-25T14:22:04.314Z,95330.85
2019-04-25T14:24:36.276Z,95324.45
2019-04-25T14:27:08.593Z,95316.42
2019-04-25T14:29:40.322Z,95321.92
2019-04-25T14:32:13.641Z,95318.09
2019-04-25T14:34:45.534Z,95318.09
2019-04-25T14:37:17.413Z,95321.33
2019-04-25T14:39:49.111Z,95316.53
2019-04-25T14:42:21.037Z,95311.58
2019-04-25T14:44:52.799Z,95305.45
2019-04-25T14:47:24.516Z,95305.11
2019-04-25T14:49:56.581Z,95304.64
2019-04-25T14:52:28.159Z,95301.98
2019-04-25T14:55:18.603Z,95307.74
2019-04-25T14:57:50.571Z,95308.47
2019-04-25T15:00:34.853Z,95315.41
2019-04-25T15:03:06.818Z,95314.62
2019-04-25T15:05:41.114Z,95316.22
2019-04-25T15:08:12.150Z,95318.21
2019-04-25T15:10:43.830Z,95320.26
2019-04-25T15:13:15.699Z,95320.13
2019-04-25T15:15:47.247Z,95321.54
2019-04-25T15:18:19.091Z,95317.63
2019-04-25T15:20:50.882Z,95317.34
2019-04-25T15:23:24.023Z,95322.28
2019-04-25T15:25:56.093Z,95319.09
2019-04-25T15:28:27.603Z,95319.19
2019-04-25T15:30:59.590Z,95322.88
2019-04-25T15:33:31.364Z,95318.00
2019-04-25T15:36:12.669Z,95319.76
2019-04-25T15:38:52.504Z,95314.91
2019-04-25T15:41:46.064Z,95313.98
2019-04-25T15:44:35.365Z,95311.54
2019-04-25T15:47:10.564Z,95311.73
2019-04-25T15:49:42.929Z,95315.84
2019-04-25T15:52:14.753Z,95320.34
2019-04-25T15:54:46.259Z,95311.54
2019-04-25T15:57:17.840Z,95309.51
2019-04-25T15:59:49.820Z,95310.02
2019-04-25T16:02:21.639Z,95309.02
2019-04-25T16:04:53.319Z,95307.97
2019-04-25T16:07:25.197Z,95318.12
2019-04-25T16:09:57.126Z,95316.98
2019-04-25T16:12:29.229Z,95321.13
2019-04-25T16:15:00.947Z,95325.16
2019-04-25T16:17:32.951Z,95330.13
2019-04-25T16:20:04.704Z,95347.42
2019-04-25T16:22:36.679Z,95343.84
2019-04-25T16:25:08.522Z,95342.26
2019-04-25T16:27:41.064Z,95352.59
2019-04-25T16:30:13.300Z,95351.33
2019-04-25T16:32:45.040Z,95346.88
2019-04-25T16:35:16.632Z,95351.36
2019-04-25T16:37:48.762Z,95349.50
2019-04-25T16:40:23.666Z,95352.83
2019-04-25T16:42:56.118Z,95350.31
2019-04-25T16:45:28.927Z,95353.11
2019-04-25T16:48:01.402Z,95338.91
2019-04-25T16:50:34.218Z,95340.73
2019-04-25T16:53:06.123Z,95353.05
2019-04-25T16:55:38.793Z,95350.84
2019-04-25T16:58:10.687Z,95360.14
2019-04-25T17:00:48.971Z,95362.91
2019-04-25T17:03:23.161Z,95365.05
2019-04-25T17:05:55.185Z,95371.95
2019-04-25T17:08:26.952Z,95366.56
2019-04-25T17:10:58.405Z,95370.02
2019-04-25T17:13:32.109Z,95375.37
2019-04-25T17:16:32.575Z,95375.23
2019-04-25T17:19:08.914Z,95375.13
2019-04-25T17:21:41.087Z,95373.14
2019-04-25T17:24:12.635Z,95372.28
2019-04-25T17:26:44.206Z,95373.91
2019-04-25T17:29:19.463Z,95374.49
2019-04-25T17:32:01.704Z,95372.95
2019-04-25T17:35:04.768Z,95375.38
2019-04-25T17:37:46.772Z,95381.66
2019-04-25T17:40:21.421Z,95385.27
2019-04-25T17:42:53.009Z,95390.42
2019-04-25T17:45:29.199Z,95396.59
2019-04-25T17:48:01.438Z,95400.31
2019-04-25T17:50:34.165Z,95402.18
2019-04-25T17:53:06.082Z,95416.47
2019-04-25T17:55:37.613Z,95417.80
2019-04-25T17:58:09.297Z,95419.34
2019-04-25T18:00:42.840Z,95423.66
2019-04-25T18:03:15.131Z,95426.17
2019-04-25T18:05:46.943Z,95434.84
2019-04-25T18:08:18.670Z,95434.81
2019-04-25T18:10:50.783Z,95440.98
2019-04-25T18:13:22.360Z,95442.08
2019-04-25T18:16:12.836Z,95447.42
2019-04-25T18:18:59.448Z,95454.42
2019-04-25T18:21:31.943Z,95452.81
2019-04-25T18:24:37.889Z,95453.31
2019-04-25T18:27:16.446Z,95447.20
2019-04-25T18:29:48.385Z,95439.45
2019-04-25T18:32:20.247Z,95442.42
2019-04-25T18:35:06.063Z,95444.82
2019-04-25T18:38:05.810Z,95448.57
2019-04-25T18:41:02.265Z,95453.13
2019-04-25T18:43:39.979Z,95454.75
2019-04-25T18:46:23.156Z,95454.75
2019-04-25T18:48:54.842Z,95460.41
2019-04-25T18:51:26.926Z,95466.28
2019-04-25T18:54:13.603Z,95471.11
2019-04-25T18:57:02.806Z,95466.28
2019-04-25T18:59:46.065Z,95471.90
2019-04-25T19:02:56.066Z,95474.27
2019-04-25T19:05:55.588Z,95477.55
2019-04-25T19:08:27.671Z,95478.31
2019-04-25T19:10:59.277Z,95480.95
2019-04-25T19:13:31.085Z,95483.64
2019-04-25T19:16:02.694Z,95486.02
2019-04-25T19:18:34.259Z,95485.50
2019-04-25T19:21:06.199Z,95483.59
2019-04-25T19:23:38.044Z,95478.50
2019-04-25T19:26:10.005Z,95484.59
2019-04-25T19:28:42.712Z,95477.39
2019-04-25T19:31:14.658Z,95470.69
2019-04-25T19:33:47.553Z,95470.67
2019-04-25T19:36:19.349Z,95473.62
2019-04-25T19:38:50.968Z,95471.16
2019-04-25T19:41:31.896Z,95470.14
2019-04-25T19:44:06.840Z,95469.58
2019-04-25T19:46:41.467Z,95473.05
2019-04-25T19:49:13.909Z,95467.17
2019-04-25T19:51:45.653Z,95471.17
2019-04-25T19:54:17.346Z,95470.59
2019-04-25T19:56:49.610Z,95473.57
2019-04-25T19:59:21.324Z,95474.56
2019-04-25T20:01:55.160Z,95475.40
2019-04-25T20:04:36.552Z,95476.42
2019-04-25T20:07:17.555Z,95477.42
2019-04-25T20:10:20.700Z,95476.89
2019-04-25T20:12:54.876Z,95473.89
2019-04-25T20:15:26.689Z,95478.44
2019-04-25T20:17:58.561Z,95474.91
2019-04-25T20:20:30.444Z,95477.30
2019-04-25T20:23:02.397Z,95478.08
2019-04-25T20:25:34.492Z,95474.53
2019-04-25T20:28:06.166Z,95479.59
2019-04-25T20:30:37.864Z,95473.69
2019-04-25T20:33:09.377Z,95482.49
2019-04-25T20:35:44.887Z,95483.42
2019-04-25T20:38:17.461Z,95489.08
2019-04-25T20:40:49.589Z,95489.42
2019-04-25T20:43:21.394Z,95482.74
2019-04-25T20:45:53.060Z,95484.36
2019-04-25T20:48:25.423Z,95486.45
2019-04-25T20:50:57.239Z,95486.83
2019-04-25T20:53:28.866Z,95482.94
2019-04-25T20:56:00.804Z,95488.68
2019-04-25T20:58:32.922Z,95489.80
2019-04-25T21:01:04.826Z,95487.94
2019-04-25T21:03:36.603Z,95491.41
2019-04-25T21:06:23.413Z,95483.03
2019-04-25T21:08:57.549Z,95482.96
2019-04-25T21:11:30.624Z,95482.02
2019-04-25T21:14:19.632Z,95481.90
2019-04-25T21:16:58.641Z,95477.17
2019-04-25T21:19:32.498Z,95484.66
2019-04-25T21:22:04.093Z,95479.56
2019-04-25T21:24:35.740Z,95489.78
2019-04-25T21:27:07.320Z,95485.90
2019-04-25T21:29:39.181Z,95486.75
2019-04-25T21:32:11.214Z,95495.22
2019-04-25T21:34:43.195Z,95500.19
2019-04-25T21:37:15.532Z,95498.16
2019-04-25T21:39:59.680Z,95492.07
2019-04-25T21:42:38.233Z,95497.87
2019-04-25T21:45:11.146Z,95492.88
2019-04-25T21:47:42.660Z,95489.51
2019-04-25T21:50:14.826Z,95492.74
2019-04-25T21:52:46.528Z,95494.69
2019-04-25T21:55:18.560Z,95500.34
2019-04-25T21:57:50.581Z,95495.21
2019-04-25T22:00:40.209Z,95495.50
2019-04-25T22:03:14.165Z,95499.67
2019-04-25T22:05:46.286Z,95504.95
2019-04-25T22:08:18.393Z,95503.77
2019-04-25T22:10:50.825Z,95503.55
2019-04-25T22:13:22.540Z,95502.14
2019-04-25T22:15:55.094Z,95496.83
2019-04-25T22:18:27.979Z,95490.24
2019-04-25T22:21:00.224Z,95491.63
2019-04-25T22:23:32.441Z,95488.45
2019-04-25T22:26:04.909Z,95492.97
2019-04-25T22:28:36.691Z,95492.85
2019-04-25T22:31:16.432Z,95493.95
2019-04-25T22:34:13.291Z,95495.13
2019-04-25T22:36:45.435Z,95492.12
2019-04-25T22:39:16.994Z,95486.70
2019-04-25T22:41:49.100Z,95494.69
2019-04-25T22:44:22.104Z,95496.36
2019-04-25T22:46:54.551Z,95495.22
2019-04-25T22:49:26.323Z,95496.70
2019-04-25T22:51:58.096Z,95497.58
2019-04-25T22:54:30.462Z,95506.58
2019-04-25T22:57:02.605Z,95506.58
2019-04-25T22:59:34.763Z,95507.38
2019-04-25T23:02:27.524Z,95512.09
2019-04-25T23:05:12.927Z,95513.19
2019-04-25T23:07:39.119Z,95504.73
2019-04-25T23:10:12.431Z,95508.47
2019-04-25T23:12:43.830Z,95503.03
2019-04-25T23:15:15.827Z,95503.44
2019-04-25T23:17:47.752Z,95502.73
2019-04-25T23:20:19.839Z,95505.08
2019-04-25T23:22:51.545Z,95502.04
2019-04-25T23:25:29.007Z,95500.13
2019-04-25T23:28:14.810Z,95500.39
2019-04-25T23:31:05.390Z,95503.83
2019-04-25T23:33:37.798Z,95501.74
2019-04-25T23:36:09.899Z,95505.88
2019-04-25T23:38:42.552Z,95504.20
2019-04-25T23:41:15.566Z,95502.98
2019-04-25T23:43:50.831Z,95505.39
2019-04-25T23:46:22.558Z,95495.72
2019-04-25T23:48:54.111Z,95492.73
2019-04-25T23:51:25.608Z,95493.05
2019-04-25T23:53:57.732Z,95490.56
2019-04-25T23:56:29.421Z,95491.88
2019-04-25T23:59:01.702Z,95485.52
